createdAt,value
2022-08-17T00:01:51.294Z,50.71
2022-08-17T00:04:20.655Z,50.32
2022-08-17T00:06:49.473Z,50.72
2022-08-17T00:09:19.445Z,50.90
2022-08-17T00:12:34.883Z,50.39
2022-08-17T00:14:37.667Z,50.52
2022-08-17T00:17:06.686Z,50.89
2022-08-17T00:19:34.451Z,51.18
2022-08-17T00:22:32.942Z,51.00
2022-08-17T00:24:52.322Z,51.11
2022-08-17T00:27:20.348Z,51.04
2022-08-17T00:29:48.187Z,50.83
2022-08-17T00:33:13.691Z,50.94
2022-08-17T00:35:06.431Z,50.71
2022-08-17T00:37:34.553Z,51.12
2022-08-17T00:40:04.157Z,50.81
2022-08-17T00:42:32.174Z,51.25
2022-08-17T00:45:00.637Z,50.81
2022-08-17T00:47:28.371Z,51.07
2022-08-17T00:49:56.547Z,50.61
2022-08-17T00:52:28.717Z,50.99
2022-08-17T00:54:57.232Z,51.10
2022-08-17T00:57:30.709Z,51.44
2022-08-17T01:00:03.787Z,50.84
2022-08-17T01:02:43.078Z,51.03
2022-08-17T01:05:15.767Z,51.08
2022-08-17T01:07:44.561Z,51.58
2022-08-17T01:10:58.194Z,51.17
2022-08-17T01:13:04.287Z,51.43
2022-08-17T01:15:34.825Z,50.92
2022-08-17T01:18:03.037Z,51.12
2022-08-17T01:20:30.857Z,50.94
2022-08-17T01:23:12.817Z,51.66
2022-08-17T01:25:50.817Z,51.45
2022-08-17T01:28:33.424Z,50.96
2022-08-17T01:31:09.224Z,51.57
2022-08-17T01:33:37.920Z,51.05
2022-08-17T01:36:07.353Z,51.30
2022-08-17T01:38:38.563Z,50.98
2022-08-17T01:41:09.450Z,50.88
2022-08-17T01:43:43.190Z,50.95
2022-08-17T01:46:15.622Z,51.34
2022-08-17T01:48:47.694Z,51.69
2022-08-17T01:51:16.580Z,51.48
2022-08-17T01:53:49.567Z,51.00
2022-08-17T01:56:20.807Z,51.17
2022-08-17T01:58:49.207Z,51.54
2022-08-17T02:01:18.794Z,51.23
2022-08-17T02:03:59.143Z,51.40
2022-08-17T02:06:31.654Z,51.72
2022-08-17T02:09:25.512Z,51.54
2022-08-17T02:11:54.640Z,51.20
2022-08-17T02:14:23.129Z,51.30
2022-08-17T02:16:51.155Z,51.49
2022-08-17T02:19:19.835Z,52.05
2022-08-17T02:21:49.921Z,51.57
2022-08-17T02:25:00.952Z,51.93
2022-08-17T02:27:11.977Z,52.07
2022-08-17T02:29:39.993Z,51.76
2022-08-17T02:32:27.477Z,52.10
2022-08-17T02:34:57.509Z,52.20
2022-08-17T02:37:25.601Z,51.25
2022-08-17T02:39:56.819Z,51.11
2022-08-17T02:42:28.903Z,50.92
2022-08-17T02:44:56.901Z,50.95
2022-08-17T02:47:25.170Z,50.94
2022-08-17T02:49:55.536Z,50.91
2022-08-17T02:53:01.965Z,51.58
2022-08-17T02:55:16.831Z,51.18
2022-08-17T02:57:45.991Z,51.45
2022-08-17T03:00:18.045Z,51.38
2022-08-17T03:02:46.902Z,51.63
2022-08-17T03:05:18.277Z,51.26
2022-08-17T03:07:46.541Z,51.83
2022-08-17T03:10:16.506Z,51.30
2022-08-17T03:12:45.731Z,51.69
2022-08-17T03:15:16.199Z,51.55
2022-08-17T03:17:44.035Z,51.29
2022-08-17T03:20:13.767Z,51.84
2022-08-17T03:22:47.940Z,52.12
2022-08-17T03:25:30.129Z,52.14
2022-08-17T03:27:58.239Z,52.01
2022-08-17T03:30:27.200Z,52.14
2022-08-17T03:32:57.547Z,52.08
2022-08-17T03:35:28.013Z,52.48
2022-08-17T03:38:00.238Z,52.09
2022-08-17T03:40:58.107Z,52.50
2022-08-17T03:43:19.496Z,52.47
2022-08-17T03:46:04.994Z,52.40
2022-08-17T03:48:51.274Z,52.28
2022-08-17T03:51:41.311Z,52.06
2022-08-17T03:54:28.726Z,52.17
2022-08-17T03:57:06.886Z,52.16
2022-08-17T03:59:36.260Z,52.56
2022-08-17T04:02:09.328Z,52.45
2022-08-17T04:04:37.403Z,52.73
2022-08-17T04:07:05.719Z,52.63
2022-08-17T04:09:34.014Z,52.69
2022-08-17T04:12:04.759Z,52.34
2022-08-17T04:14:39.365Z,52.57
2022-08-17T04:17:21.178Z,52.91
2022-08-17T04:19:49.269Z,52.38
2022-08-17T04:22:31.938Z,52.70
2022-08-17T04:25:05.588Z,53.00
2022-08-17T04:27:34.759Z,52.95
2022-08-17T04:30:02.761Z,52.95
2022-08-17T04:33:02.297Z,53.01
2022-08-17T04:35:21.172Z,52.82
2022-08-17T04:37:49.258Z,52.59
2022-08-17T04:40:35.003Z,52.72
2022-08-17T04:43:06.119Z,52.64
2022-08-17T04:45:34.128Z,52.79
2022-08-17T04:48:02.367Z,52.58
2022-08-17T04:50:30.132Z,52.80
2022-08-17T04:52:58.117Z,52.49
2022-08-17T04:55:26.222Z,53.10
2022-08-17T04:57:54.273Z,52.89
2022-08-17T05:00:25.743Z,52.83
2022-08-17T05:02:55.926Z,52.99
2022-08-17T05:05:26.271Z,52.86
2022-08-17T05:07:54.659Z,53.09
2022-08-17T05:10:22.859Z,52.99
2022-08-17T05:12:59.204Z,53.52
2022-08-17T05:15:29.764Z,53.92
2022-08-17T05:18:01.300Z,53.84
2022-08-17T05:20:29.998Z,54.08
2022-08-17T05:22:59.270Z,53.92
2022-08-17T05:25:32.752Z,54.13
2022-08-17T05:28:02.416Z,54.05
2022-08-17T05:30:31.859Z,55.15
2022-08-17T05:33:02.061Z,55.10
2022-08-17T05:35:33.534Z,55.49
2022-08-17T05:38:01.657Z,54.36
2022-08-17T05:40:32.870Z,55.11
2022-08-17T05:43:09.371Z,55.88
2022-08-17T05:45:55.873Z,55.36
2022-08-17T05:48:35.727Z,55.60
2022-08-17T05:51:17.092Z,55.83
2022-08-17T05:53:51.895Z,55.66
2022-08-17T05:56:29.475Z,56.44
2022-08-17T05:59:04.547Z,56.79
2022-08-17T06:01:42.164Z,56.36
2022-08-17T06:04:20.705Z,56.52
2022-08-17T06:06:55.143Z,56.70
2022-08-17T06:09:35.998Z,56.70
2022-08-17T06:12:21.990Z,57.60
2022-08-17T06:15:10.907Z,57.15
2022-08-17T06:17:41.091Z,56.21
2022-08-17T06:20:11.774Z,56.37
2022-08-17T06:22:47.057Z,56.83
2022-08-17T06:25:16.643Z,56.51
2022-08-17T06:27:53.602Z,57.38
2022-08-17T06:30:25.085Z,57.54
2022-08-17T06:32:59.490Z,57.56
2022-08-17T06:35:35.803Z,57.74
2022-08-17T06:38:36.904Z,58.16
2022-08-17T06:41:05.718Z,56.91
2022-08-17T06:43:56.225Z,57.90
2022-08-17T06:46:30.175Z,58.30
2022-08-17T06:49:12.259Z,57.83
2022-08-17T06:51:43.705Z,58.19
2022-08-17T06:54:20.663Z,58.59
2022-08-17T06:56:55.204Z,59.14
2022-08-17T06:59:54.176Z,59.28
2022-08-17T07:02:29.421Z,59.18
2022-08-17T07:05:14.178Z,58.92
2022-08-17T07:08:03.856Z,58.82
2022-08-17T07:10:39.119Z,59.09
2022-08-17T07:13:21.399Z,59.28
2022-08-17T07:15:56.811Z,59.11
2022-08-17T07:18:27.975Z,59.19
2022-08-17T07:21:04.745Z,59.78
2022-08-17T07:23:40.762Z,59.82
2022-08-17T07:26:10.117Z,59.87
2022-08-17T07:28:38.139Z,59.92
2022-08-17T07:31:06.998Z,59.97
2022-08-17T07:33:36.743Z,60.06
2022-08-17T07:36:06.350Z,59.88
2022-08-17T07:38:36.465Z,60.22
2022-08-17T07:41:07.653Z,60.67
2022-08-17T07:43:37.940Z,60.41
2022-08-17T07:46:32.644Z,60.23
2022-08-17T07:49:19.248Z,60.14
2022-08-17T07:52:24.155Z,60.99
2022-08-17T07:54:51.908Z,61.25
2022-08-17T07:57:40.810Z,61.15
2022-08-17T08:00:26.699Z,61.32
2022-08-17T08:03:26.215Z,60.86
2022-08-17T08:05:57.366Z,61.20
2022-08-17T08:08:33.753Z,61.27
2022-08-17T08:11:09.167Z,61.37
2022-08-17T08:13:42.414Z,61.41
2022-08-17T08:16:23.851Z,61.48
2022-08-17T08:18:56.804Z,61.97
2022-08-17T08:21:34.414Z,61.74
2022-08-17T08:24:17.437Z,61.63
2022-08-17T08:26:55.471Z,62.07
2022-08-17T08:29:32.667Z,62.09
2022-08-17T08:32:10.574Z,62.87
2022-08-17T08:35:01.525Z,63.09
2022-08-17T08:37:43.259Z,63.50
2022-08-17T08:40:33.813Z,63.28
2022-08-17T08:43:14.984Z,63.65
2022-08-17T08:45:51.629Z,63.67
2022-08-17T08:48:55.966Z,63.90
2022-08-17T08:51:37.309Z,63.51
2022-08-17T08:54:13.503Z,63.36
2022-08-17T08:57:19.487Z,63.89
2022-08-17T08:59:58.064Z,63.99
2022-08-17T09:02:47.424Z,64.79
2022-08-17T09:05:29.440Z,62.91
2022-08-17T09:08:06.124Z,62.36
2022-08-17T09:10:47.095Z,62.47
2022-08-17T09:13:23.348Z,62.54
2022-08-17T09:15:57.282Z,62.75
2022-08-17T09:19:03.171Z,62.35
2022-08-17T09:21:22.601Z,63.71
2022-08-17T09:23:59.930Z,63.47
2022-08-17T09:26:32.347Z,62.47
2022-08-17T09:29:07.035Z,62.59
2022-08-17T09:31:48.815Z,61.50
2022-08-17T09:34:21.205Z,62.63
2022-08-17T09:36:57.173Z,63.79
2022-08-17T09:39:33.789Z,62.68
2022-08-17T09:42:07.740Z,62.38
2022-08-17T09:44:41.945Z,62.50
2022-08-17T09:47:17.194Z,62.73
2022-08-17T09:49:49.970Z,62.52
2022-08-17T09:52:22.347Z,62.14
2022-08-17T09:54:52.479Z,62.77
2022-08-17T09:57:32.136Z,63.41
2022-08-17T10:00:16.606Z,61.95
2022-08-17T10:03:08.354Z,61.55
2022-08-17T10:05:46.488Z,61.89
2022-08-17T10:08:25.560Z,61.06
2022-08-17T10:11:00.745Z,58.54
2022-08-17T10:13:37.045Z,59.88
2022-08-17T10:16:14.017Z,59.77
2022-08-17T10:18:51.738Z,60.79
2022-08-17T10:21:38.531Z,60.78
2022-08-17T10:24:31.099Z,60.23
2022-08-17T10:27:02.601Z,59.79
2022-08-17T10:29:48.974Z,58.99
2022-08-17T10:32:28.738Z,59.78
2022-08-17T10:35:25.937Z,59.28
2022-08-17T10:38:37.733Z,59.26
2022-08-17T10:41:17.969Z,59.72
2022-08-17T10:43:58.904Z,59.07
2022-08-17T10:47:04.085Z,59.09
2022-08-17T10:49:36.018Z,59.69
2022-08-17T10:52:26.961Z,59.15
2022-08-17T10:55:13.863Z,59.39
2022-08-17T10:57:44.761Z,58.59
2022-08-17T11:01:12.628Z,59.02
2022-08-17T11:03:54.721Z,58.14
2022-08-17T11:06:34.498Z,58.53
2022-08-17T11:09:25.457Z,58.95
2022-08-17T11:12:08.213Z,58.36
2022-08-17T11:14:54.286Z,58.16
2022-08-17T11:17:50.032Z,58.42
2022-08-17T11:20:56.597Z,59.25
2022-08-17T11:23:53.901Z,58.45
2022-08-17T11:26:26.915Z,55.89
2022-08-17T11:29:00.051Z,55.33
2022-08-17T11:31:38.990Z,55.32
2022-08-17T11:34:15.189Z,55.32
2022-08-17T11:37:11.038Z,55.75
2022-08-17T11:39:53.382Z,55.83
2022-08-17T11:42:38.655Z,55.22
2022-08-17T11:45:31.665Z,55.53
2022-08-17T11:48:29.196Z,55.72
2022-08-17T11:51:24.560Z,55.06
2022-08-17T11:54:31.294Z,54.45
2022-08-17T11:56:55.249Z,53.53
2022-08-17T11:59:55.241Z,54.18
2022-08-17T12:02:38.859Z,54.43
2022-08-17T12:05:42.064Z,53.92
2022-08-17T12:08:18.570Z,52.53
2022-08-17T12:11:09.765Z,52.99
2022-08-17T12:13:45.773Z,52.44
2022-08-17T12:16:16.392Z,51.93
2022-08-17T12:18:51.571Z,51.79
2022-08-17T12:21:25.893Z,52.87
2022-08-17T12:23:58.524Z,51.89
2022-08-17T12:26:36.582Z,51.59
2022-08-17T12:29:38.676Z,51.55
2022-08-17T12:40:03.213Z,52.33
2022-08-17T12:42:37.244Z,50.76
2022-08-17T12:45:07.575Z,50.04
2022-08-17T12:47:37.839Z,49.71
2022-08-17T12:50:28.458Z,48.88
2022-08-17T12:53:01.898Z,50.32
2022-08-17T12:55:36.812Z,49.59
2022-08-17T12:58:13.991Z,48.79
2022-08-17T13:00:50.117Z,49.05
2022-08-17T13:03:21.148Z,48.96
2022-08-17T13:05:58.071Z,49.53
2022-08-17T13:08:29.765Z,48.70
2022-08-17T13:10:59.035Z,49.01
2022-08-17T13:13:28.501Z,48.91
2022-08-17T13:16:00.002Z,48.62
2022-08-17T13:18:41.885Z,48.88
2022-08-17T13:21:18.741Z,48.67
2022-08-17T13:23:57.031Z,48.69
2022-08-17T13:26:30.821Z,49.21
2022-08-17T13:29:00.394Z,49.86
2022-08-17T13:31:42.896Z,49.57
2022-08-17T13:34:38.705Z,50.06
2022-08-17T13:37:34.473Z,48.88
2022-08-17T13:40:25.744Z,49.22
2022-08-17T13:42:56.419Z,50.17
2022-08-17T13:45:50.712Z,49.94
2022-08-17T13:48:30.458Z,49.50
2022-08-17T13:51:18.051Z,49.58
2022-08-17T13:53:54.791Z,49.21
2022-08-17T13:56:37.877Z,49.34
2022-08-17T13:59:10.174Z,49.43
2022-08-17T14:01:40.811Z,49.13
2022-08-17T14:04:12.470Z,49.01
2022-08-17T14:06:53.197Z,49.24
2022-08-17T14:09:25.365Z,49.01
2022-08-17T14:11:55.048Z,49.15
2022-08-17T14:14:23.629Z,48.97
2022-08-17T14:16:51.835Z,48.76
2022-08-17T14:19:25.230Z,48.79
2022-08-17T14:21:56.484Z,49.45
2022-08-17T14:24:27.504Z,48.94
2022-08-17T14:26:55.932Z,48.72
2022-08-17T14:29:28.266Z,48.51
2022-08-17T14:31:57.314Z,48.99
2022-08-17T14:34:26.799Z,49.09
2022-08-17T14:36:54.660Z,48.22
2022-08-17T14:39:22.538Z,48.22
2022-08-17T14:41:50.587Z,48.94
2022-08-17T14:44:20.358Z,48.67
2022-08-17T14:46:52.314Z,48.57
2022-08-17T14:49:25.708Z,48.64
2022-08-17T14:51:58.801Z,48.94
2022-08-17T14:54:33.105Z,48.62
2022-08-17T14:57:22.184Z,48.00
2022-08-17T14:59:57.028Z,48.81
2022-08-17T15:02:29.471Z,49.19
2022-08-17T15:05:02.079Z,48.54
2022-08-17T15:07:32.517Z,48.27
2022-08-17T15:10:02.477Z,48.42
2022-08-17T15:12:34.306Z,48.17
2022-08-17T15:15:04.801Z,48.76
2022-08-17T15:17:44.519Z,48.99
2022-08-17T15:20:17.256Z,48.83
2022-08-17T15:22:51.662Z,48.52
2022-08-17T15:25:22.431Z,48.24
2022-08-17T15:27:55.655Z,48.36
2022-08-17T15:30:30.139Z,48.46
2022-08-17T15:32:59.143Z,48.66
2022-08-17T15:35:34.292Z,48.68
2022-08-17T15:38:12.018Z,48.97
2022-08-17T15:40:44.541Z,48.79
2022-08-17T15:43:16.073Z,49.08
2022-08-17T15:45:44.182Z,49.01
2022-08-17T15:48:16.497Z,49.49
2022-08-17T15:50:49.398Z,49.62
2022-08-17T15:53:23.289Z,49.70
2022-08-17T15:55:54.610Z,49.75
2022-08-17T15:58:30.070Z,49.75
2022-08-17T16:01:16.535Z,49.81
2022-08-17T16:04:04.302Z,50.30
2022-08-17T16:06:35.561Z,50.15
2022-08-17T16:09:05.145Z,50.42
2022-08-17T16:11:33.237Z,49.92
2022-08-17T16:14:01.316Z,49.19
2022-08-17T16:16:31.457Z,49.92
2022-08-17T16:18:59.441Z,49.81
2022-08-17T16:21:29.460Z,49.51
2022-08-17T16:24:02.391Z,50.65
2022-08-17T16:26:33.579Z,50.71
2022-08-17T16:29:04.931Z,51.02
2022-08-17T16:31:33.047Z,51.40
2022-08-17T16:34:17.240Z,52.46
2022-08-17T16:36:55.728Z,52.15
2022-08-17T16:39:26.602Z,52.07
2022-08-17T16:41:58.279Z,52.44
2022-08-17T16:44:32.600Z,52.51
2022-08-17T16:47:02.433Z,52.83
2022-08-17T16:49:35.466Z,52.52
2022-08-17T16:52:05.601Z,52.41
2022-08-17T16:54:33.464Z,52.76
2022-08-17T16:57:05.382Z,53.23
2022-08-17T16:59:40.781Z,52.83
2022-08-17T17:02:19.856Z,52.80
2022-08-17T17:04:53.508Z,52.71
2022-08-17T17:07:45.607Z,52.71
2022-08-17T17:10:16.842Z,53.16
2022-08-17T17:13:02.071Z,54.04
2022-08-17T17:15:42.861Z,54.27
2022-08-17T17:18:14.870Z,54.66
2022-08-17T17:20:48.931Z,54.30
2022-08-17T17:23:29.249Z,54.68
2022-08-17T17:26:04.560Z,54.83
2022-08-17T17:28:40.689Z,53.85
2022-08-17T17:31:12.985Z,53.99
2022-08-17T17:33:48.011Z,54.34
2022-08-17T17:36:25.217Z,53.93
2022-08-17T17:38:55.916Z,53.38
2022-08-17T17:41:30.220Z,53.34
2022-08-17T17:44:03.722Z,52.62
2022-08-17T17:46:37.834Z,52.80
2022-08-17T17:49:07.091Z,53.01
2022-08-17T17:52:09.361Z,52.59
2022-08-17T17:54:44.325Z,52.91
2022-08-17T17:57:22.265Z,52.86
2022-08-17T17:59:59.613Z,52.92
2022-08-17T18:02:52.232Z,53.17
2022-08-17T18:05:38.836Z,53.33
2022-08-17T18:08:32.118Z,53.40
2022-08-17T18:11:13.492Z,53.13
2022-08-17T18:13:56.806Z,53.58
2022-08-17T18:16:32.085Z,53.63
2022-08-17T18:19:00.992Z,53.95
2022-08-17T18:21:36.180Z,53.55
2022-08-17T18:24:04.897Z,53.65
2022-08-17T18:26:55.533Z,53.45
2022-08-17T18:29:45.271Z,53.95
2022-08-17T18:32:36.675Z,54.59
2022-08-17T18:35:30.771Z,54.71
2022-08-17T18:38:20.550Z,54.91
2022-08-17T18:40:59.394Z,54.84
2022-08-17T18:43:36.466Z,55.75
2022-08-17T18:46:28.569Z,56.44
2022-08-17T18:49:01.548Z,56.36
2022-08-17T18:51:40.525Z,56.18
2022-08-17T18:54:16.667Z,56.35
2022-08-17T18:56:45.246Z,56.51
2022-08-17T18:59:36.944Z,56.34
2022-08-17T19:02:32.454Z,56.64
2022-08-17T19:05:13.260Z,57.00
2022-08-17T19:07:42.751Z,57.25
2022-08-17T19:10:25.137Z,57.05
2022-08-17T19:13:00.881Z,56.89
2022-08-17T19:15:42.701Z,57.55
2022-08-17T19:18:16.003Z,57.20
2022-08-17T19:20:51.727Z,57.32
2022-08-17T19:23:25.365Z,57.08
2022-08-17T19:25:58.614Z,57.29
2022-08-17T19:28:30.558Z,57.39
2022-08-17T19:31:02.805Z,57.45
2022-08-17T19:33:32.513Z,58.09
2022-08-17T19:36:08.511Z,57.43
2022-08-17T19:38:45.735Z,57.59
2022-08-17T19:41:21.819Z,57.75
2022-08-17T19:44:06.993Z,57.50
2022-08-17T19:46:49.832Z,57.55
2022-08-17T19:49:34.498Z,57.17
2022-08-17T19:52:28.935Z,57.14
2022-08-17T19:55:01.564Z,57.18
2022-08-17T19:57:42.769Z,57.27
2022-08-17T20:00:14.759Z,57.60
2022-08-17T20:02:50.587Z,57.63
2022-08-17T20:05:24.854Z,57.33
2022-08-17T20:08:02.147Z,56.79
2022-08-17T20:10:38.515Z,57.36
2022-08-17T20:13:10.996Z,57.01
2022-08-17T20:15:42.197Z,57.42
2022-08-17T20:18:18.524Z,56.86
2022-08-17T20:20:56.481Z,56.97
2022-08-17T20:23:50.463Z,57.07
2022-08-17T20:26:23.242Z,57.25
2022-08-17T20:29:11.347Z,57.03
2022-08-17T20:31:45.895Z,57.50
2022-08-17T20:34:36.803Z,57.54
2022-08-17T20:37:08.841Z,57.25
2022-08-17T20:39:42.627Z,56.93
2022-08-17T20:42:29.248Z,57.40
2022-08-17T20:44:59.201Z,57.20
2022-08-17T20:47:30.010Z,57.18
2022-08-17T20:50:03.263Z,56.75
2022-08-17T20:52:50.749Z,56.79
2022-08-17T20:55:56.088Z,57.29
2022-08-17T20:58:47.539Z,56.93
2022-08-17T21:01:24.388Z,57.30
2022-08-17T21:03:54.129Z,57.40
2022-08-17T21:06:25.480Z,57.10
2022-08-17T21:08:58.599Z,57.32
2022-08-17T21:12:03.034Z,57.18
2022-08-17T21:14:56.115Z,57.38
2022-08-17T21:17:42.107Z,57.39
2022-08-17T21:20:25.250Z,57.65
2022-08-17T21:23:21.053Z,57.59
2022-08-17T21:26:02.491Z,57.48
2022-08-17T21:29:01.344Z,57.69
2022-08-17T21:31:34.877Z,57.26
2022-08-17T21:34:31.775Z,57.10
2022-08-17T21:37:30.419Z,57.02
2022-08-17T21:40:01.087Z,57.21
2022-08-17T21:42:32.076Z,57.20
2022-08-17T21:45:10.800Z,57.61
2022-08-17T21:47:47.489Z,57.65
2022-08-17T21:50:19.659Z,57.83
2022-08-17T21:52:49.566Z,57.50
2022-08-17T21:55:23.381Z,57.51
2022-08-17T21:57:55.419Z,57.47
2022-08-17T22:00:40.794Z,57.48
2022-08-17T22:03:23.934Z,57.64
2022-08-17T22:05:51.984Z,57.18
2022-08-17T22:08:22.339Z,57.33
2022-08-17T22:10:51.529Z,57.70
2022-08-17T22:13:24.359Z,57.68
2022-08-17T22:16:15.496Z,57.69
2022-08-17T22:18:58.078Z,57.33
2022-08-17T22:21:26.485Z,57.41
2022-08-17T22:24:06.380Z,57.71
2022-08-17T22:27:01.168Z,57.42
2022-08-17T22:30:02.248Z,57.66
2022-08-17T22:32:38.794Z,57.62
2022-08-17T22:35:32.838Z,57.57
2022-08-17T22:38:32.049Z,57.57
2022-08-17T22:41:26.188Z,57.77
2022-08-17T22:43:57.432Z,57.65
2022-08-17T22:46:26.926Z,57.71
2022-08-17T22:48:59.280Z,57.88
2022-08-17T22:51:30.787Z,57.81
2022-08-17T22:54:19.170Z,57.79
2022-08-17T22:57:15.269Z,57.41
2022-08-17T22:59:50.160Z,57.75
2022-08-17T23:02:27.139Z,57.73
2022-08-17T23:05:18.870Z,57.57
2022-08-17T23:07:48.090Z,57.61
2022-08-17T23:10:16.395Z,57.61
2022-08-17T23:12:44.149Z,57.59
2022-08-17T23:15:17.442Z,57.73
2022-08-17T23:17:45.527Z,57.62
2022-08-17T23:20:17.767Z,57.73
2022-08-17T23:22:52.194Z,57.51
2022-08-17T23:25:27.231Z,57.58
2022-08-17T23:27:55.470Z,57.59
2022-08-17T23:30:25.378Z,57.53
2022-08-17T23:32:54.375Z,57.72
2022-08-17T23:35:40.489Z,57.63
2022-08-17T23:38:09.823Z,57.43
2022-08-17T23:40:39.375Z,57.45
2022-08-17T23:43:24.723Z,57.58
2022-08-17T23:45:57.430Z,57.44
2022-08-17T23:48:28.466Z,57.63
2022-08-17T23:51:09.611Z,57.42
2022-08-17T23:53:42.135Z,57.58
2022-08-17T23:56:11.262Z,57.46
2022-08-17T23:58:40.290Z,57.28
